Time;durP1;ratioP1;P1;durP2;ratioP2;P2;SDS_P1;SDS_P2;PMS_P1;PMS_P2;Temp;Humidity;BMP_temperature;BMP_pressure;BME280_temperature;BME280_humidity;BME280_pressure;Samples;Min_cycle;Max_cycle;Signal;HPM_P1;HPM_P2
2022/10/23 00:01:43;;;;;;;14.85;10.52;;;;;;;;;;10205530;28;20072;-69
2022/10/23 00:06:41;;;;;;;15.48;10.15;;;;;;;;;;10208092;28;20070;-69
2022/10/23 00:11:41;;;;;;;14.60;9.48;;;;;;;;;;10207502;28;20077;-69
2022/10/23 00:16:41;;;;;;;17.27;10.75;;;;;;;;;;10207935;28;20069;-69
2022/10/23 00:21:39;;;;;;;15.85;9.68;;;;;;;;;;10208950;28;20049;-68
2022/10/23 00:26:39;;;;;;;15.52;9.90;;;;;;;;;;10207787;28;20081;-69
2022/10/23 00:31:38;;;;;;;15.02;9.43;;;;;;;;;;10198279;28;20085;-69
2022/10/23 00:36:38;;;;;;;15.68;8.90;;;;;;;;;;10207188;28;20084;-68
2022/10/23 00:41:36;;;;;;;14.27;9.77;;;;;;;;;;10223617;28;20515;-69
2022/10/23 00:46:35;;;;;;;13.90;9.57;;;;;;;;;;10207109;28;20045;-68
2022/10/23 00:51:36;;;;;;;20.17;9.70;;;;;;;;;;10209715;28;20508;-69
2022/10/23 00:56:38;;;;;;;10.10;9.10;;;;;;;;;;10203288;28;20056;-68
2022/10/23 01:01:36;;;;;;;13.88;8.93;;;;;;;;;;10222740;28;20078;-67
2022/10/23 01:06:36;;;;;;;15.20;8.98;;;;;;;;;;10230625;28;20044;-69
2022/10/23 01:11:39;;;;;;;12.50;8.98;;;;;;;;;;10232699;28;20085;-69
2022/10/23 01:16:41;;;;;;;13.15;9.90;;;;;;;;;;10207943;28;20591;-69
2022/10/23 01:27:26;;;;;;;11.77;9.32;;;;;;;;;;10263567;28;20064;-68
2022/10/23 01:32:28;;;;;;;13.63;9.82;;;;;;;;;;10232238;28;20081;-69
2022/10/23 01:37:29;;;;;;;15.07;10.25;;;;;;;;;;10205610;28;20418;-69
2022/10/23 01:42:33;;;;;;;11.07;9.63;;;;;;;;;;10211046;28;20049;-69
2022/10/23 01:47:34;;;;;;;12.23;10.40;;;;;;;;;;10199123;28;20339;-69
2022/10/23 01:52:36;;;;;;;12.85;9.95;;;;;;;;;;10236172;28;20494;-68
2022/10/23 01:57:37;;;;;;;15.25;12.15;;;;;;;;;;10203904;28;20053;-68
2022/10/23 02:02:39;;;;;;;17.17;11.25;;;;;;;;;;10211701;28;20065;-70
2022/10/23 02:07:37;;;;;;;16.23;11.75;;;;;;;;;;10211942;28;20159;-69
2022/10/23 02:12:40;;;;;;;17.45;12.13;;;;;;;;;;10212342;28;20073;-67
2022/10/23 02:17:43;;;;;;;14.25;10.65;;;;;;;;;;10210426;28;20037;-69
2022/10/23 02:22:46;;;;;;;16.42;10.60;;;;;;;;;;10212875;28;20049;-68
2022/10/23 02:27:47;;;;;;;13.57;10.25;;;;;;;;;;10216054;28;20045;-69
2022/10/23 02:32:48;;;;;;;17.52;11.18;;;;;;;;;;10210579;28;20053;-69
2022/10/23 02:37:52;;;;;;;16.33;9.75;;;;;;;;;;10210488;28;20072;-69
2022/10/23 02:42:56;;;;;;;18.13;11.63;;;;;;;;;;10209973;28;20060;-68
2022/10/23 02:48:00;;;;;;;13.32;9.30;;;;;;;;;;10239311;28;20056;-70
2022/10/23 02:53:05;;;;;;;17.07;9.17;;;;;;;;;;10238885;28;20448;-69
2022/10/23 02:58:09;;;;;;;12.57;8.82;;;;;;;;;;10211301;28;20075;-69
2022/10/23 03:03:16;;;;;;;10.25;8.65;;;;;;;;;;10208441;28;20049;-69
2022/10/23 03:08:14;;;;;;;12.02;8.38;;;;;;;;;;10208839;28;20548;-69
2022/10/23 03:13:12;;;;;;;14.20;9.45;;;;;;;;;;10208640;28;20088;-69
2022/10/23 03:18:14;;;;;;;16.08;9.55;;;;;;;;;;10237218;28;20050;-69
2022/10/23 03:23:17;;;;;;;;;;;;;;;;;;10236879;28;20054;-69
2022/10/23 03:28:15;;;;;;;12.23;8.95;;;;;;;;;;10210544;28;19921;-70
2022/10/23 03:33:15;;;;;;;18.23;10.43;;;;;;;;;;10208474;28;20474;-69
2022/10/23 03:38:13;;;;;;;15.95;10.32;;;;;;;;;;10207572;28;20530;-69
2022/10/23 03:43:12;;;;;;;17.05;10.60;;;;;;;;;;10207875;28;20067;-69
2022/10/23 03:48:11;;;;;;;17.38;10.93;;;;;;;;;;10205965;28;20080;-69
2022/10/23 03:53:11;;;;;;;20.08;12.05;;;;;;;;;;10208089;28;20080;-69
2022/10/23 03:58:09;;;;;;;14.75;11.65;;;;;;;;;;10218305;28;20045;-69
2022/10/23 04:03:07;;;;;;;14.43;11.30;;;;;;;;;;10205107;28;20157;-68
2022/10/23 04:08:07;;;;;;;19.63;10.95;;;;;;;;;;10194255;28;20046;-70
2022/10/23 04:13:07;;;;;;;15.90;10.88;;;;;;;;;;10218191;28;20087;-69
2022/10/23 04:18:06;;;;;;;15.43;10.60;;;;;;;;;;10225629;28;20486;-69
2022/10/23 04:23:05;;;;;;;17.58;10.07;;;;;;;;;;10209570;28;20069;-69
2022/10/23 04:28:04;;;;;;;15.50;10.07;;;;;;;;;;10216405;28;20073;-69
2022/10/23 04:33:09;;;;;;;15.55;10.25;;;;;;;;;;10216172;28;20503;-69
2022/10/23 04:38:07;;;;;;;16.23;10.82;;;;;;;;;;10233410;28;20069;-69
2022/10/23 04:43:06;;;;;;;13.90;10.35;;;;;;;;;;10214058;28;20042;-70
2022/10/23 04:48:09;;;;;;;18.20;11.93;;;;;;;;;;10224075;28;20061;-69
2022/10/23 04:53:26;;;;;;;13.35;10.00;;;;;;;;;;10226320;28;20081;-68
2022/10/23 04:58:41;;;;;;;;;;;;;;;;;;10209285;28;21578;-70
2022/10/23 05:03:40;;;;;;;10.68;8.90;;;;;;;;;;10199890;28;19961;-68
2022/10/23 05:08:39;;;;;;;19.83;10.73;;;;;;;;;;10231405;28;20073;-69
2022/10/23 05:13:49;;;;;;;18.75;9.85;;;;;;;;;;10235720;28;20514;-70
2022/10/23 05:18:49;;;;;;;12.80;10.10;;;;;;;;;;10199281;28;20073;-70
2022/10/23 05:23:47;;;;;;;14.38;10.45;;;;;;;;;;10245322;28;20585;-70
2022/10/23 05:28:46;;;;;;;12.02;10.45;;;;;;;;;;10238873;28;20534;-69
2022/10/23 05:33:49;;;;;;;14.32;11.10;;;;;;;;;;10238249;28;20839;-69
2022/10/23 05:38:50;;;;;;;18.88;11.73;;;;;;;;;;10208087;28;20088;-70
2022/10/23 05:43:51;;;;;;;15.70;10.50;;;;;;;;;;10236335;28;20046;-68
2022/10/23 05:49:09;;;;;;;19.25;11.50;;;;;;;;;;10230352;28;20072;-69
2022/10/23 05:54:20;;;;;;;23.00;11.82;;;;;;;;;;10237979;28;20105;-69
2022/10/23 05:59:26;;;;;;;21.35;10.80;;;;;;;;;;10227880;28;20069;-68
2022/10/23 06:04:33;;;;;;;13.83;11.77;;;;;;;;;;10222260;28;20326;-67
2022/10/23 06:09:50;;;;;;;11.90;10.35;;;;;;;;;;10214250;28;20066;-70
2022/10/23 06:14:49;;;;;;;19.25;11.80;;;;;;;;;;10216519;28;20546;-69
2022/10/23 06:19:51;;;;;;;21.35;14.00;;;;;;;;;;10207364;28;20073;-69
2022/10/23 06:24:50;;;;;;;13.82;10.07;;;;;;;;;;10228759;28;20673;-69
2022/10/23 06:29:54;;;;;;;19.40;10.10;;;;;;;;;;10216741;28;20584;-69
2022/10/23 06:34:54;;;;;;;13.70;10.13;;;;;;;;;;10205753;28;20760;-70
2022/10/23 06:39:52;;;;;;;12.18;8.85;;;;;;;;;;10202396;28;20078;-69
2022/10/23 06:45:09;;;;;;;13.95;8.75;;;;;;;;;;10206212;28;20421;-70
2022/10/23 06:50:19;;;;;;;16.20;9.80;;;;;;;;;;10204065;28;20069;-70
2022/10/23 06:55:17;;;;;;;14.00;9.38;;;;;;;;;;10203404;28;20090;-70
2022/10/23 07:00:16;;;;;;;9.13;7.25;;;;;;;;;;10227423;28;20081;-70
2022/10/23 07:05:23;;;;;;;13.63;7.78;;;;;;;;;;10219835;28;20081;-70
2022/10/23 07:10:22;;;;;;;11.75;6.63;;;;;;;;;;10236153;28;20056;-70
2022/10/23 07:15:28;;;;;;;9.77;4.75;;;;;;;;;;10222819;28;20553;-70
2022/10/23 07:20:29;;;;;;;12.02;4.53;;;;;;;;;;10207156;28;20038;-70
2022/10/23 07:25:28;;;;;;;14.50;6.15;;;;;;;;;;10211112;28;20090;-70
2022/10/23 07:30:28;;;;;;;11.88;5.00;;;;;;;;;;10208949;28;20068;-71
2022/10/23 07:35:30;;;;;;;9.23;5.15;;;;;;;;;;10214509;28;20542;-70
2022/10/23 07:40:38;;;;;;;10.73;4.85;;;;;;;;;;10217620;28;20083;-70
2022/10/23 07:45:39;;;;;;;24.42;6.97;;;;;;;;;;10198880;28;20491;-70
2022/10/23 07:50:51;;;;;;;7.38;4.63;;;;;;;;;;10240173;28;20124;-69
2022/10/23 07:55:53;;;;;;;10.13;4.53;;;;;;;;;;10235414;28;20096;-69
2022/10/23 08:00:54;;;;;;;8.93;4.03;;;;;;;;;;10244119;28;20061;-70
2022/10/23 08:06:00;;;;;;;7.07;3.15;;;;;;;;;;10217656;28;20050;-70
2022/10/23 08:11:00;;;;;;;10.73;4.47;;;;;;;;;;10231033;28;20060;-70
2022/10/23 08:16:03;;;;;;;7.47;3.20;;;;;;;;;;10233070;28;20089;-70
2022/10/23 08:21:21;;;;;;;3.92;3.35;;;;;;;;;;10234991;28;20080;-70
2022/10/23 08:26:22;;;;;;;8.77;4.45;;;;;;;;;;10206920;28;20091;-69
2022/10/23 08:31:21;;;;;;;8.40;5.57;;;;;;;;;;10245247;28;20064;-70
2022/10/23 08:36:41;;;;;;;15.52;9.88;;;;;;;;;;10217457;28;20103;-70
2022/10/23 08:41:41;;;;;;;14.90;7.38;;;;;;;;;;10211689;28;20522;-70
2022/10/23 08:46:45;;;;;;;13.85;8.00;;;;;;;;;;10225894;28;20045;-71
2022/10/23 08:52:07;;;;;;;3.55;3.25;;;;;;;;;;10229173;28;20088;-70
2022/10/23 08:57:13;;;;;;;8.48;2.95;;;;;;;;;;10203684;28;20077;-71
2022/10/23 09:02:16;;;;;;;7.25;3.63;;;;;;;;;;10201430;28;20096;-71
2022/10/23 09:07:21;;;;;;;22.58;8.25;;;;;;;;;;10192574;28;20479;-71
2022/10/23 09:12:21;;;;;;;12.40;6.07;;;;;;;;;;10194064;28;20049;-71
2022/10/23 09:17:22;;;;;;;31.55;15.38;;;;;;;;;;10202441;28;20064;-71
2022/10/23 09:22:22;;;;;;;17.02;10.57;;;;;;;;;;10199621;28;20084;-71
2022/10/23 09:27:20;;;;;;;13.82;6.70;;;;;;;;;;10199611;28;20115;-70
2022/10/23 09:32:22;;;;;;;22.17;14.05;;;;;;;;;;10195611;28;20080;-71
2022/10/23 09:37:23;;;;;;;36.03;21.35;;;;;;;;;;10201486;28;20499;-71
2022/10/23 09:42:23;;;;;;;6.40;3.22;;;;;;;;;;10198335;28;20076;-71
2022/10/23 09:47:23;;;;;;;6.40;3.15;;;;;;;;;;10194984;28;20077;-71
2022/10/23 09:52:29;;;;;;;7.18;3.20;;;;;;;;;;10201938;28;20084;-71
2022/10/23 09:57:29;;;;;;;7.72;3.13;;;;;;;;;;10196419;28;20069;-71
2022/10/23 10:02:28;;;;;;;14.07;7.05;;;;;;;;;;10196494;28;20484;-71
2022/10/23 10:07:42;;;;;;;9.25;4.15;;;;;;;;;;10199582;28;20088;-71
2022/10/23 10:12:45;;;;;;;5.30;2.88;;;;;;;;;;10197865;28;20675;-70
2022/10/23 10:17:47;;;;;;;9.63;3.73;;;;;;;;;;10197488;28;20070;-69
2022/10/23 10:22:50;;;;;;;6.13;2.97;;;;;;;;;;10211174;28;20072;-70
2022/10/23 10:27:53;;;;;;;4.70;2.70;;;;;;;;;;10224913;28;20085;-70
2022/10/23 10:32:54;;;;;;;2.90;2.25;;;;;;;;;;10209346;28;20072;-70
2022/10/23 10:38:03;;;;;;;5.15;2.90;;;;;;;;;;10210379;28;20072;-70
2022/10/23 10:43:15;;;;;;;7.15;2.88;;;;;;;;;;10210491;28;20466;-70
2022/10/23 10:48:22;;;;;;;3.38;1.60;;;;;;;;;;10208747;28;20076;-69
2022/10/23 10:53:57;;;;;;;4.15;2.38;;;;;;;;;;10204948;28;20077;-69
2022/10/23 10:58:58;;;;;;;7.03;2.45;;;;;;;;;;10207216;28;20057;-69
2022/10/23 11:03:58;;;;;;;5.18;3.08;;;;;;;;;;10209420;28;20069;-69
2022/10/23 11:09:00;;;;;;;5.78;2.10;;;;;;;;;;10211055;28;20310;-69
2022/10/23 11:14:20;;;;;;;2.38;2.17;;;;;;;;;;10216274;28;20081;-71
2022/10/23 11:19:20;;;;;;;7.55;2.65;;;;;;;;;;10239182;28;20648;-70
2022/10/23 11:24:34;;;;;;;4.75;2.88;;;;;;;;;;10238154;28;20104;-70
2022/10/23 11:29:47;;;;;;;4.82;3.20;;;;;;;;;;10238759;28;20049;-70
2022/10/23 11:35:00;;;;;;;7.00;3.05;;;;;;;;;;10236918;28;20088;-69
2022/10/23 11:40:01;;;;;;;8.10;4.53;;;;;;;;;;10225270;28;20045;-69
2022/10/23 11:45:01;;;;;;;10.13;2.90;;;;;;;;;;10208108;28;20065;-70
2022/10/23 11:50:25;;;;;;;3.83;2.53;;;;;;;;;;10209933;28;20074;-70
2022/10/23 11:55:25;;;;;;;2.25;1.70;;;;;;;;;;10204309;28;20088;-70
2022/10/23 12:00:29;;;;;;;2.25;2.05;;;;;;;;;;10224260;28;20419;-69
2022/10/23 12:05:30;;;;;;;2.60;1.90;;;;;;;;;;10237534;28;20282;-70
2022/10/23 12:10:33;;;;;;;3.05;1.95;;;;;;;;;;10236327;28;20049;-71
2022/10/23 12:15:34;;;;;;;4.70;2.58;;;;;;;;;;10219645;28;20080;-70
2022/10/23 12:20:37;;;;;;;2.60;2.33;;;;;;;;;;10207412;28;20468;-70
2022/10/23 12:25:40;;;;;;;2.72;2.33;;;;;;;;;;10208566;28;20077;-70
2022/10/23 12:30:43;;;;;;;2.10;1.90;;;;;;;;;;10207114;28;20085;-70
2022/10/23 12:36:03;;;;;;;5.03;4.03;;;;;;;;;;10207103;28;20077;-71
2022/10/23 12:41:04;;;;;;;4.28;2.40;;;;;;;;;;10208352;28;20077;-70
2022/10/23 12:46:18;;;;;;;4.65;2.40;;;;;;;;;;10205674;28;20081;-70
2022/10/23 12:51:20;;;;;;;4.18;2.97;;;;;;;;;;10205791;28;20049;-71
2022/10/23 12:56:19;;;;;;;4.35;2.75;;;;;;;;;;10208706;28;20077;-71
2022/10/23 13:01:25;;;;;;;5.72;1.77;;;;;;;;;;10206058;28;20085;-71
2022/10/23 13:06:24;;;;;;;4.28;2.25;;;;;;;;;;10205764;28;20050;-70
2022/10/23 13:11:24;;;;;;;2.60;2.40;;;;;;;;;;10205445;28;20070;-70
2022/10/23 13:16:27;;;;;;;2.53;2.17;;;;;;;;;;10221169;28;20120;-69
2022/10/23 13:21:27;;;;;;;3.83;2.78;;;;;;;;;;10205461;28;20076;-70
2022/10/23 13:26:30;;;;;;;3.03;2.50;;;;;;;;;;10228974;28;20037;-70
2022/10/23 13:31:33;;;;;;;5.05;2.63;;;;;;;;;;10234026;28;20084;-69
2022/10/23 13:36:34;;;;;;;5.05;2.05;;;;;;;;;;10234727;28;20511;-69
2022/10/23 13:41:36;;;;;;;2.42;2.00;;;;;;;;;;10227208;28;20073;-70
2022/10/23 13:46:36;;;;;;;9.23;4.80;;;;;;;;;;10213113;28;20081;-70
2022/10/23 13:51:37;;;;;;;7.03;3.05;;;;;;;;;;10229612;28;20107;-69
2022/10/23 13:56:42;;;;;;;4.78;3.13;;;;;;;;;;10236008;28;20474;-69
2022/10/23 14:01:43;;;;;;;5.47;2.80;;;;;;;;;;10239853;28;20073;-69
2022/10/23 14:06:42;;;;;;;7.75;3.13;;;;;;;;;;10224646;28;20446;-69
2022/10/23 14:11:41;;;;;;;3.78;3.17;;;;;;;;;;10240423;28;20076;-69
2022/10/23 14:16:39;;;;;;;5.35;3.08;;;;;;;;;;10237631;28;20077;-70
2022/10/23 14:21:39;;;;;;;5.97;4.00;;;;;;;;;;10228326;28;20065;-69
2022/10/23 14:26:37;;;;;;;4.38;3.70;;;;;;;;;;10239488;28;20081;-70
2022/10/23 14:31:35;;;;;;;6.10;4.28;;;;;;;;;;10237686;28;20072;-70
2022/10/23 14:36:33;;;;;;;5.03;4.05;;;;;;;;;;10238306;28;20073;-69
2022/10/23 14:41:49;;;;;;;8.70;3.93;;;;;;;;;;10237335;28;20313;-70
2022/10/23 14:46:47;;;;;;;7.05;5.10;;;;;;;;;;10238827;28;20522;-70
2022/10/23 14:51:46;;;;;;;9.95;4.85;;;;;;;;;;10229259;28;20061;-70
2022/10/23 14:56:44;;;;;;;6.43;3.83;;;;;;;;;;10229034;28;20076;-69
2022/10/23 15:01:44;;;;;;;5.45;2.90;;;;;;;;;;10209283;28;20074;-69
2022/10/23 15:06:46;;;;;;;5.97;3.25;;;;;;;;;;10206721;28;20073;-70
2022/10/23 15:11:44;;;;;;;5.40;4.45;;;;;;;;;;10206827;28;20100;-70
2022/10/23 15:16:44;;;;;;;6.72;4.47;;;;;;;;;;10205879;28;20092;-69
2022/10/23 15:21:43;;;;;;;3.15;2.67;;;;;;;;;;10206013;28;20073;-68
2022/10/23 15:26:43;;;;;;;5.63;2.78;;;;;;;;;;10205659;28;20077;-69
2022/10/23 15:31:42;;;;;;;7.50;3.22;;;;;;;;;;10208774;28;20073;-69
2022/10/23 15:36:43;;;;;;;2.83;2.45;;;;;;;;;;10208869;28;20514;-70
2022/10/23 15:41:42;;;;;;;11.00;4.95;;;;;;;;;;10209500;28;20081;-70
2022/10/23 15:46:40;;;;;;;5.13;4.35;;;;;;;;;;10209470;28;20475;-69
2022/10/23 15:51:39;;;;;;;4.20;3.10;;;;;;;;;;10208516;28;20080;-69
2022/10/23 15:56:39;;;;;;;4.57;4.18;;;;;;;;;;10209245;28;20084;-70
2022/10/23 16:01:37;;;;;;;5.78;3.90;;;;;;;;;;10207551;28;20054;-69
2022/10/23 16:06:36;;;;;;;4.13;3.70;;;;;;;;;;10208858;28;20073;-69
2022/10/23 16:11:37;;;;;;;6.90;4.82;;;;;;;;;;10207959;28;20049;-69
2022/10/23 16:16:36;;;;;;;6.68;5.60;;;;;;;;;;10222259;28;20123;-68
2022/10/23 16:21:36;;;;;;;12.40;8.07;;;;;;;;;;10207203;28;20184;-69
2022/10/23 16:26:34;;;;;;;5.57;4.68;;;;;;;;;;10208096;28;20076;-69
2022/10/23 16:31:33;;;;;;;6.05;3.78;;;;;;;;;;10207345;28;20081;-69
2022/10/23 16:36:33;;;;;;;6.18;4.20;;;;;;;;;;10206578;28;20070;-70
2022/10/23 16:41:54;;;;;;;7.18;6.07;;;;;;;;;;10224274;28;20058;-69
2022/10/23 16:46:57;;;;;;;8.68;7.18;;;;;;;;;;10206763;28;20050;-70
2022/10/23 16:51:56;;;;;;;10.40;4.72;;;;;;;;;;10207779;28;20069;-69
2022/10/23 16:56:54;;;;;;;9.00;3.65;;;;;;;;;;10217158;28;20723;-67
2022/10/23 17:01:53;;;;;;;4.75;2.88;;;;;;;;;;10223419;28;20081;-68
2022/10/23 17:06:51;;;;;;;2.75;2.50;;;;;;;;;;10226447;28;20065;-68
2022/10/23 17:11:52;;;;;;;9.55;3.47;;;;;;;;;;10232436;28;20045;-72
2022/10/23 17:16:51;;;;;;;7.82;3.90;;;;;;;;;;10233061;28;20081;-72
2022/10/23 17:21:50;;;;;;;5.15;3.55;;;;;;;;;;10223877;28;20081;-72
2022/10/23 17:26:48;;;;;;;6.45;4.10;;;;;;;;;;10208962;28;20077;-71
2022/10/23 17:31:48;;;;;;;3.08;2.78;;;;;;;;;;10221051;28;20092;-72
2022/10/23 17:36:48;;;;;;;7.10;2.50;;;;;;;;;;10204870;28;20081;-72
2022/10/23 17:41:46;;;;;;;2.67;2.47;;;;;;;;;;10205926;28;20070;-72
2022/10/23 17:46:45;;;;;;;5.82;2.83;;;;;;;;;;10238557;28;20084;-70
2022/10/23 17:51:44;;;;;;;2.90;2.60;;;;;;;;;;10225674;28;20084;-71
2022/10/23 17:56:43;;;;;;;6.03;3.17;;;;;;;;;;10213503;28;20100;-71
2022/10/23 18:01:42;;;;;;;4.90;3.13;;;;;;;;;;10224332;28;20694;-71
2022/10/23 18:06:41;;;;;;;5.28;3.38;;;;;;;;;;10225325;28;20072;-72
2022/10/23 18:11:42;;;;;;;5.03;3.08;;;;;;;;;;10225961;28;20069;-71
2022/10/23 18:16:45;;;;;;;2.97;2.40;;;;;;;;;;10225727;28;20470;-71
2022/10/23 18:21:43;;;;;;;4.18;2.92;;;;;;;;;;10230781;28;20057;-71
2022/10/23 18:26:44;;;;;;;6.13;3.45;;;;;;;;;;10232590;28;20091;-72
2022/10/23 18:31:43;;;;;;;12.95;11.65;;;;;;;;;;10231127;28;20764;-71
2022/10/23 18:36:42;;;;;;;8.57;5.70;;;;;;;;;;10224312;28;20073;-72
2022/10/23 18:41:41;;;;;;;13.00;7.28;;;;;;;;;;10203644;28;20062;-71
2022/10/23 18:46:40;;;;;;;5.88;4.75;;;;;;;;;;10202467;28;20069;-70
2022/10/23 18:51:39;;;;;;;8.68;4.53;;;;;;;;;;10209350;28;20065;-70
2022/10/23 18:56:38;;;;;;;4.97;4.47;;;;;;;;;;10238110;28;20073;-71
2022/10/23 19:01:36;;;;;;;3.67;3.13;;;;;;;;;;10236175;28;20073;-71
2022/10/23 19:06:36;;;;;;;4.50;3.03;;;;;;;;;;10238987;28;20123;-72
2022/10/23 19:11:35;;;;;;;4.88;3.78;;;;;;;;;;10229896;28;20042;-70
2022/10/23 19:16:35;;;;;;;5.80;4.13;;;;;;;;;;10230737;28;20069;-73
2022/10/23 19:21:39;;;;;;;6.70;4.95;;;;;;;;;;10228333;28;20081;-72
2022/10/23 19:26:40;;;;;;;5.95;3.60;;;;;;;;;;10235776;28;20065;-69
2022/10/23 19:31:41;;;;;;;8.70;3.47;;;;;;;;;;10236234;28;20513;-70
2022/10/23 19:36:40;;;;;;;8.88;4.45;;;;;;;;;;10236939;28;20049;-71
2022/10/23 19:41:39;;;;;;;7.53;3.22;;;;;;;;;;10234546;28;20076;-71
2022/10/23 19:46:38;;;;;;;12.68;10.40;;;;;;;;;;10219481;28;20075;-72
2022/10/23 19:51:36;;;;;;;13.10;10.50;;;;;;;;;;10209343;28;20077;-71
2022/10/23 19:56:36;;;;;;;16.05;9.35;;;;;;;;;;10217396;28;20652;-71
2022/10/23 20:01:35;;;;;;;9.73;6.30;;;;;;;;;;10216185;28;20068;-72
2022/10/23 20:06:34;;;;;;;5.68;5.07;;;;;;;;;;10236487;28;20041;-70
2022/10/23 20:11:32;;;;;;;8.63;4.85;;;;;;;;;;10236598;28;20077;-70
2022/10/23 20:16:32;;;;;;;6.20;4.97;;;;;;;;;;10207031;28;20072;-71
2022/10/23 20:21:32;;;;;;;11.70;6.60;;;;;;;;;;10234958;28;20088;-71
2022/10/23 20:26:30;;;;;;;12.73;9.50;;;;;;;;;;10235375;28;20435;-70
2022/10/23 20:31:29;;;;;;;13.85;9.45;;;;;;;;;;10234716;28;20084;-71
2022/10/23 20:36:28;;;;;;;10.55;6.05;;;;;;;;;;10234888;28;20042;-70
2022/10/23 20:41:28;;;;;;;5.75;4.05;;;;;;;;;;10231840;28;20116;-71
2022/10/23 20:46:27;;;;;;;10.05;5.25;;;;;;;;;;10198323;28;20084;-70
2022/10/23 20:51:25;;;;;;;4.45;3.65;;;;;;;;;;10216738;28;20514;-70
2022/10/23 20:56:29;;;;;;;3.35;3.05;;;;;;;;;;10234085;28;20464;-71
2022/10/23 21:01:29;;;;;;;7.47;3.92;;;;;;;;;;10233306;28;20080;-72
2022/10/23 21:06:28;;;;;;;4.20;3.33;;;;;;;;;;10230797;28;20439;-72
2022/10/23 21:11:45;;;;;;;5.35;3.67;;;;;;;;;;10231381;28;20092;-71
2022/10/23 21:16:45;;;;;;;7.75;3.42;;;;;;;;;;10229676;28;20099;-71
2022/10/23 21:21:43;;;;;;;6.97;3.25;;;;;;;;;;10205003;28;20077;-70
2022/10/23 21:26:42;;;;;;;4.90;2.88;;;;;;;;;;10212884;28;20073;-70
2022/10/23 21:31:40;;;;;;;8.25;3.45;;;;;;;;;;10225439;28;20069;-71
2022/10/23 21:36:44;;;;;;;7.57;3.63;;;;;;;;;;10227156;28;20073;-71
2022/10/23 21:42:03;;;;;;;4.80;2.85;;;;;;;;;;10221314;28;20742;-71
2022/10/23 21:47:01;;;;;;;3.78;3.40;;;;;;;;;;10233680;28;20076;-71
2022/10/23 21:52:01;;;;;;;6.88;2.95;;;;;;;;;;10195341;28;20100;-71
2022/10/23 21:56:59;;;;;;;6.78;3.42;;;;;;;;;;10232780;28;20049;-71
2022/10/23 22:01:57;;;;;;;3.38;2.67;;;;;;;;;;10233751;28;20339;-71
2022/10/23 22:06:56;;;;;;;6.22;3.60;;;;;;;;;;10205661;28;20042;-71
2022/10/23 22:11:56;;;;;;;3.58;3.20;;;;;;;;;;10205601;28;20065;-71
2022/10/23 22:16:54;;;;;;;7.65;3.60;;;;;;;;;;10206519;28;20075;-70
2022/10/23 22:21:52;;;;;;;5.18;3.08;;;;;;;;;;10212332;28;20077;-72
2022/10/23 22:26:52;;;;;;;3.70;2.60;;;;;;;;;;10212589;28;20062;-71
2022/10/23 22:31:52;;;;;;;4.28;3.20;;;;;;;;;;10211988;28;20081;-71
2022/10/23 22:36:50;;;;;;;11.13;2.65;;;;;;;;;;10212263;28;20045;-70
2022/10/23 22:41:49;;;;;;;3.42;2.67;;;;;;;;;;10211603;28;20080;-70
2022/10/23 22:46:47;;;;;;;5.43;3.10;;;;;;;;;;10211443;28;20070;-72
2022/10/23 22:51:47;;;;;;;5.57;2.42;;;;;;;;;;10212116;28;20078;-71
2022/10/23 22:56:45;;;;;;;3.25;2.88;;;;;;;;;;10211515;28;20081;-73
2022/10/23 23:01:45;;;;;;;5.18;2.97;;;;;;;;;;10209988;28;20073;-73
2022/10/23 23:06:43;;;;;;;4.25;3.22;;;;;;;;;;10212458;28;20074;-72
2022/10/23 23:11:43;;;;;;;3.30;3.00;;;;;;;;;;10211283;28;20042;-71
2022/10/23 23:16:49;;;;;;;5.95;3.35;;;;;;;;;;10211210;28;20073;-71
2022/10/23 23:21:47;;;;;;;4.20;2.90;;;;;;;;;;10236640;28;20092;-71
2022/10/23 23:26:47;;;;;;;5.70;3.22;;;;;;;;;;10225329;28;20042;-71
2022/10/23 23:31:45;;;;;;;7.18;3.40;;;;;;;;;;10211870;28;20073;-70
2022/10/23 23:36:43;;;;;;;4.40;3.10;;;;;;;;;;10209816;28;20050;-71
2022/10/23 23:41:41;;;;;;;3.85;3.25;;;;;;;;;;10209397;28;20077;-71
2022/10/23 23:46:41;;;;;;;7.63;3.88;;;;;;;;;;10209392;28;20073;-71
2022/10/23 23:51:39;;;;;;;4.47;3.28;;;;;;;;;;10208117;28;20084;-72
2022/10/23 23:56:38;;;;;;;3.90;3.35;;;;;;;;;;10234103;28;20065;-71
